KBBD/BBD METAR and TAF weather

Enter ICAO airport designator
Station Type Date Time Source
KBBD METAR 2018/10/16 21:15 UTC NOAA

KBBD 162115Z AUTO 36013KT 2 1/2SM -RA OVC005 06/05 A3023 RMK AO2


Station Type Date Time Source
KBBD Decoded METAR 2018/10/16 21:15 UTC NOAA

Brady, Curtis Field Airport, TX, United States (KBBD) 31-10-45N 099-19-26W
Oct 16, 2018 - 05:15 PM EDT / 2018.10.16 2115 UTC
Wind: from the N (360 degrees) at 15 MPH (13 KT):0
Visibility: 2 1/2 mile(s):0
Sky conditions: overcast
Weather: light rain
Temperature: 42 F (6 C)
Dew Point: 41 F (5 C)
Relative Humidity: 93%
Pressure (altimeter): 30.23 in. Hg (1023 hPa)
ob: KBBD 162115Z AUTO 36013KT 2 1/2SM -RA OVC005 06/05 A3023 RMK AO2
cycle: 21

Station Type Date Time Source
KBBD TAF 2018/10/16 19:24 UTC NOAA

TAF
AMD KBBD 161920Z 1619/1718 35012KT 4SM -RA BR OVC005
TEMPO 1619/1621 1SM RA BR
FM170100 35010KT 2SM -RA BR OVC004


Example: see airport list